Hauptseite
METAR-TAF:

METAR-TAF

Flughäfen :

Flughafen Ajaccio

Ajaccio, Frankreich

Breite: 41-55N, Länge: 008-48E, Höhe: 6 m

Beobachtung

Neuester Wetterbericht von vor 32 Minuten, um 12:30 UTC
Wind 9 kt aus Süd/Südwest
Temperatur 22°C
Luftfeuchtigkeit 33%
Luftdruck 1016 hPa
Sichtweite: 8000 m

METAR: LFKJ 221230Z AUTO 21009KT 8000 NSC 22/05 Q1016 NOSIG

Zeit: 15:02 (13:02 UTC)

Prognose

Neuester Wetterbericht von vor 5 Stunden und 2 Minuten, um 08:00 UTC
Gültige Prognose vom 22 um 09 UTC bis 23 um 09 UTC
Wind 5 kt aus Nordost
Sichtweite 10 km oder mehr
keine Wolken unter 1500 m und keine Kumulonimbus oder Gewitterwolken
Übergehend zu
vom 22 um 09 UTC bis 22 um 11 UTC
Wind 10 kt aus West/Südwest
Übergehend zu
vom 22 um 16 UTC bis 22 um 18 UTC
Wind 5 kt aus Nordost

TAF: LFKJ 220800Z 2209/2309 04005KT CAVOK BECMG 2209/2211 24010KT BECMG 2216/2218 04005KT

Wetterbeobachtungen und Prognosen von mehr als 4000 Flughäfen (METAR und TAF Bericht).

Die verfügbaren Stationen werden durch gelbe und rote Markierungen auf der Karte dargestellt.

Führen Sie die Maus auf sie, um den Namen der Station zu sehen.

Darauf klicken, um die Beobachtung von Wetterbeobachtungen und Prognosen zu sehen.

Um die Karte zu ändern : klicken Sie auf den grünen Tasten mit einem schwarzen Kreuz Zum Vergrößern, auf den grünen Button mit einem Gedankenstrich zu verkleinern, oder auf die grünen Pfeile für benachbarte Karten.


METAR-TAF: